Palmyra, NY

1:18 AM EST on December 18, 2014 (GMT -0500)
KNYPALMY2 | Change Station
CLOSE
Current Station
Personal Weather Station
Location: Palmyra, NY
Elevation: 907 ft
Nearby Weather Stations

Elev 907 ft 43.07 °N, 77.23 °W | Updated 7 seconds ago

Overcast
Overcast
31.7 °F
Feels Like 27 °F
N
5.0
Wind Variable Wind from West
Gusts 21.0 mph

Today
High -- | Low -- °F
--% Chance of Precip.
Yesterday
High -- | Low -- °F
Precip. -- in
7:35 AM 4:35 PM
Waning Crescent, 17% visible
Pressure 29.99 in
Visibility 10.0 miles
Clouds Overcast 1800 ft
Windchill 27 °F
Dew Point 28 °F
Humidity 86%
Rainfall 0.00 in
Snow Depth Not available.
UV 0.0 out of 12
Pollen .10 out of 12
Air Quality Not available.
Flu Activity Not available.
METAR KROC 180554Z 28016G22KT 10SM -SN OVC018 00/M03 A2996 RMK AO2 SLP155 PCPN VRY LGT P0000 60002 T00001033 10011 20000 53007

More Conditions Fewer Conditions

Pressure 29.99 in
Visibility 10.0 miles
Clouds Overcast 1800 ft
Windchill 27 °F
Dew Point 28 °F
Humidity 86%
Rainfall 0.00 in
Snow Depth Not available.
UV 0.0 out of 12
Pollen .10 out of 12
Air Quality Not available.
Flu Activity Not available.
METAR KROC 180554Z 28016G22KT 10SM -SN OVC018 00/M03 A2996 RMK AO2 SLP155 PCPN VRY LGT P0000 60002 T00001033 10011 20000 53007

More Conditions Fewer Conditions

10-Day Weather Forecast

Almanac

Astronomy

Dec. 18, 2014 Rise Set
Actual Time
Civil Twilight
Nautical Twilight
Astronomical Twilight
Moon
Length of Visible Light
Length of Day
Tomorrow will be .
, % of the Moon is Illuminated

Today's Extremes

State Highs State Lows

Community

WunderPhotos

Upload Photos

1,778,896 photos uploaded!

WunderBlogs® & News

Nearby

Air Quality

  Air Quality AQ Index Pollutant
Not available.

Snow Depth

Station Depth Elevation

Earthquake Activity

City Distance Mag. Time & Date
Minimum magnitude displayed is 2.5.

Coastal Water Temperatures

Place Temperature

Nearby Weather Stations